createdAt,value
2023-01-26T00:00:20.147Z,957.1918945
2023-01-26T00:01:20.654Z,957.2111206
2023-01-26T00:02:21.085Z,957.1506348
2023-01-26T00:03:21.502Z,957.1785889
2023-01-26T00:04:22.535Z,957.1359253
2023-01-26T00:05:23.029Z,957.1625977
2023-01-26T00:06:23.480Z,957.1281738
2023-01-26T00:07:23.864Z,957.0871582
2023-01-26T00:08:24.416Z,957.0917358
2023-01-26T00:09:24.830Z,957.0739136
2023-01-26T00:10:25.214Z,957.041626
2023-01-26T00:11:26.369Z,957.0752563
2023-01-26T00:12:27.326Z,956.9942017
2023-01-26T00:13:27.864Z,957.0167847
2023-01-26T00:14:28.254Z,956.9824829
2023-01-26T00:15:28.745Z,957.0184326
2023-01-26T00:16:29.291Z,956.9749756
2023-01-26T00:17:29.668Z,956.9979858
2023-01-26T00:18:30.166Z,956.9673462
2023-01-26T00:19:30.612Z,957.0039063
2023-01-26T00:20:30.963Z,956.994873
2023-01-26T00:21:31.597Z,956.9940796
2023-01-26T00:22:32.872Z,957.0265503
2023-01-26T00:23:33.273Z,957.0366211
2023-01-26T00:24:33.809Z,957.0568848
2023-01-26T00:25:34.196Z,957.0020142
2023-01-26T00:26:34.697Z,956.9990845
2023-01-26T00:27:35.117Z,956.9770508
2023-01-26T00:28:35.585Z,956.9833374
2023-01-26T00:29:37.006Z,956.9508667
2023-01-26T00:31:07.714Z,956.9226074
2023-01-26T00:32:08.727Z,956.944458
2023-01-26T00:33:09.515Z,956.9276733
2023-01-26T00:34:10.059Z,956.8858032
2023-01-26T00:35:10.478Z,956.8290405
2023-01-26T00:36:10.994Z,956.8428345
2023-01-26T00:37:11.441Z,956.7835693
2023-01-26T00:38:11.785Z,956.7932129
2023-01-26T00:39:12.315Z,956.7972412
2023-01-26T00:40:13.098Z,956.7540894
2023-01-26T00:41:13.111Z,956.6983032
2023-01-26T00:42:13.576Z,956.6886597
2023-01-26T00:43:14.578Z,956.6831055
2023-01-26T00:44:15.119Z,956.6724243
2023-01-26T00:45:15.528Z,956.6591187
2023-01-26T00:46:16.020Z,956.6390381
2023-01-26T00:47:16.469Z,956.6486206
2023-01-26T00:48:16.823Z,956.678772
2023-01-26T00:49:17.320Z,956.6358032
2023-01-26T00:50:17.745Z,956.6168823
2023-01-26T00:51:18.151Z,956.5939331
2023-01-26T00:52:18.582Z,956.6221924
2023-01-26T00:53:19.529Z,956.6499023
2023-01-26T00:54:20.013Z,956.6773682
2023-01-26T00:55:20.426Z,956.6581421
2023-01-26T00:56:20.921Z,956.6654663
2023-01-26T00:57:21.378Z,956.6386719
2023-01-26T00:58:21.756Z,956.6482544
2023-01-26T00:59:22.215Z,956.6179199
2023-01-26T01:00:22.611Z,956.6245117
2023-01-26T01:01:23.104Z,956.6381836
2023-01-26T01:02:23.771Z,956.6445923
2023-01-26T01:03:24.560Z,956.6366577
2023-01-26T01:04:25.093Z,956.6379395
2023-01-26T01:05:25.462Z,956.6101685
2023-01-26T01:06:25.948Z,956.618103
2023-01-26T01:07:26.449Z,956.6165771
2023-01-26T01:08:26.847Z,956.5907593
2023-01-26T01:09:27.320Z,956.6595459
2023-01-26T01:10:27.749Z,956.6035156
2023-01-26T01:11:28.069Z,956.6296997
2023-01-26T01:12:28.564Z,956.602478
2023-01-26T01:13:29.565Z,956.6278076
2023-01-26T01:14:30.121Z,956.6134644
2023-01-26T01:15:30.498Z,956.6166382
2023-01-26T01:16:30.963Z,956.6242065
2023-01-26T01:17:31.675Z,956.5940552
2023-01-26T01:18:31.905Z,956.6001587
2023-01-26T01:19:32.343Z,956.5825806
2023-01-26T01:20:32.768Z,956.6098633
2023-01-26T01:21:33.152Z,956.5751343
2023-01-26T01:22:33.739Z,956.6170044
2023-01-26T01:23:34.543Z,956.6054077
2023-01-26T01:24:35.073Z,956.5640869
2023-01-26T01:25:35.490Z,956.5814209
2023-01-26T01:26:36.363Z,956.5966187
2023-01-26T01:28:06.946Z,956.6353149
2023-01-26T01:29:07.390Z,956.6392822
2023-01-26T01:30:08.696Z,956.5808716
2023-01-26T01:31:09.139Z,956.6155396
2023-01-26T01:32:09.439Z,956.5739136
2023-01-26T01:33:40.562Z,956.5814209
2023-01-26T01:35:11.260Z,956.588623
2023-01-26T01:36:11.699Z,956.5406494
2023-01-26T01:37:12.187Z,956.5534668
2023-01-26T01:38:12.575Z,956.5009155
2023-01-26T01:39:13.015Z,956.5645142
2023-01-26T01:40:13.618Z,956.5465088
2023-01-26T01:41:13.924Z,956.5239258
2023-01-26T01:42:14.437Z,956.5222778
2023-01-26T01:43:14.841Z,956.5177612
2023-01-26T01:44:15.885Z,956.4865112
2023-01-26T01:45:16.354Z,956.4777222
2023-01-26T01:46:16.798Z,956.4674072
2023-01-26T01:47:17.291Z,956.4268799
2023-01-26T01:48:17.676Z,956.4554443
2023-01-26T01:49:18.165Z,956.4309082
2023-01-26T01:50:18.632Z,956.4349976
2023-01-26T01:51:19.030Z,956.4146729
2023-01-26T01:52:19.515Z,956.4229736
2023-01-26T01:53:20.824Z,956.3760986
2023-01-26T01:54:21.234Z,956.4134521
2023-01-26T01:55:21.676Z,956.4078369
2023-01-26T01:56:22.162Z,956.3598633
2023-01-26T01:57:22.547Z,956.4006348
2023-01-26T01:58:23.593Z,956.3864136
2023-01-26T01:59:24.004Z,956.4071655
2023-01-26T02:00:24.503Z,956.392334
2023-01-26T02:01:24.948Z,956.368042
2023-01-26T02:02:25.369Z,956.3445435
2023-01-26T02:03:25.921Z,956.3365479
2023-01-26T02:04:27.049Z,956.350647
2023-01-26T02:05:27.432Z,956.3581543
2023-01-26T02:06:27.979Z,956.3739014
2023-01-26T02:07:28.369Z,956.329834
2023-01-26T02:08:28.881Z,956.3378296
2023-01-26T02:09:29.359Z,956.34375
2023-01-26T02:10:29.739Z,956.3532715
2023-01-26T02:11:30.232Z,956.3373413
2023-01-26T02:12:30.676Z,956.374939
2023-01-26T02:13:31.896Z,956.361084
2023-01-26T02:14:32.354Z,956.3410645
2023-01-26T02:15:32.714Z,956.3890381
2023-01-26T02:16:33.299Z,956.4016113
2023-01-26T02:17:33.681Z,956.354248
2023-01-26T02:18:34.202Z,956.3440552
2023-01-26T02:19:34.582Z,956.3328247
2023-01-26T02:20:34.973Z,956.3112793
2023-01-26T02:21:35.803Z,956.3016968
2023-01-26T02:23:06.455Z,956.2902222
2023-01-26T02:24:07.011Z,956.2767334
2023-01-26T02:25:07.356Z,956.2424927
2023-01-26T02:26:07.799Z,956.234375
2023-01-26T02:27:08.195Z,956.178894
2023-01-26T02:28:09.437Z,956.1651611
2023-01-26T02:29:09.880Z,956.1726074
2023-01-26T02:30:40.509Z,956.1607666
2023-01-26T02:32:11.785Z,956.1699829
2023-01-26T02:33:12.148Z,956.2072754
2023-01-26T02:34:12.724Z,956.2022095
2023-01-26T02:35:13.818Z,956.1804199
2023-01-26T02:36:14.221Z,956.1518555
2023-01-26T02:37:14.704Z,956.1454468
2023-01-26T02:38:15.104Z,956.1567383
2023-01-26T02:39:15.617Z,956.1345215
2023-01-26T02:40:16.079Z,956.0657959
2023-01-26T02:41:16.469Z,956.0801392
2023-01-26T02:42:17.004Z,956.0964966
2023-01-26T02:43:17.373Z,956.095459
2023-01-26T02:44:18.620Z,956.1472168
2023-01-26T02:45:19.028Z,956.1775513
2023-01-26T02:46:19.610Z,956.1147461
2023-01-26T02:47:20.043Z,956.0875854
2023-01-26T02:48:20.386Z,956.0664673
2023-01-26T02:49:20.839Z,956.0596313
2023-01-26T02:50:21.287Z,956.059082
2023-01-26T02:51:21.686Z,956.0737305
2023-01-26T02:52:22.283Z,956.0886841
2023-01-26T02:53:22.662Z,956.0529785
2023-01-26T02:54:24.104Z,956.0150757
2023-01-26T02:55:24.583Z,955.979248
2023-01-26T02:56:24.983Z,955.9935913
2023-01-26T02:57:25.513Z,956.0308838
2023-01-26T02:58:26.522Z,955.9849854
2023-01-26T02:59:27.030Z,955.9354858
2023-01-26T03:00:28.331Z,955.9191895
2023-01-26T03:01:31.029Z,955.9397583
2023-01-26T03:02:29.322Z,955.8915405
2023-01-26T03:03:29.767Z,955.909668
2023-01-26T03:04:30.807Z,955.8987427
2023-01-26T03:05:31.222Z,955.8937378
2023-01-26T03:06:31.708Z,955.8903198
2023-01-26T03:07:32.211Z,955.927002
2023-01-26T03:08:32.699Z,955.958252
2023-01-26T03:09:33.240Z,955.9151001
2023-01-26T03:10:33.618Z,955.9054565
2023-01-26T03:11:34.078Z,955.8878784
2023-01-26T03:12:34.649Z,955.7965088
2023-01-26T03:14:06.117Z,955.7896118
2023-01-26T03:15:06.539Z,955.8362427
2023-01-26T03:16:07.287Z,955.786377
2023-01-26T03:17:07.437Z,955.8272095
2023-01-26T03:18:07.921Z,955.789856
2023-01-26T03:19:08.491Z,955.7664185
2023-01-26T03:20:09.118Z,955.7836914
2023-01-26T03:21:09.162Z,955.7980957
2023-01-26T03:22:09.673Z,955.7994385
2023-01-26T03:23:10.259Z,955.7594604
2023-01-26T03:24:11.616Z,955.812439
2023-01-26T03:25:12.013Z,955.7548218
2023-01-26T03:26:12.407Z,955.7711182
2023-01-26T03:27:12.874Z,955.743103
2023-01-26T03:28:13.297Z,955.7608032
2023-01-26T03:29:13.823Z,955.7514648
2023-01-26T03:30:14.833Z,955.7416382
2023-01-26T03:31:15.254Z,955.7554932
2023-01-26T03:32:15.708Z,955.7501831
2023-01-26T03:33:16.112Z,955.7619019
2023-01-26T03:34:17.203Z,955.7515869
2023-01-26T03:35:17.532Z,955.7506104
2023-01-26T03:36:17.905Z,955.7421875
2023-01-26T03:37:18.336Z,955.7240601
2023-01-26T03:38:18.754Z,955.7251587
2023-01-26T03:39:19.157Z,955.7402954
2023-01-26T03:40:19.579Z,955.6912231
2023-01-26T03:41:19.994Z,955.6480713
2023-01-26T03:42:20.479Z,955.632019
2023-01-26T03:43:20.908Z,955.6543579
2023-01-26T03:44:22.012Z,955.6315918
2023-01-26T03:45:22.453Z,955.6576538
2023-01-26T03:46:22.926Z,955.6158447
2023-01-26T03:47:23.350Z,955.5873413
2023-01-26T03:48:23.799Z,955.5689087
2023-01-26T03:49:24.316Z,955.5723267
2023-01-26T03:50:24.712Z,955.595459
2023-01-26T03:51:25.133Z,955.5758057
2023-01-26T03:52:25.608Z,955.565918
2023-01-26T03:53:26.085Z,955.5529785
2023-01-26T03:54:27.006Z,955.5427856
2023-01-26T03:55:27.489Z,955.5331421
2023-01-26T03:56:27.983Z,955.552124
2023-01-26T03:57:28.379Z,955.5232544
2023-01-26T03:58:28.848Z,955.5002441
2023-01-26T03:59:29.280Z,955.49646
2023-01-26T04:00:30.622Z,955.5361938
2023-01-26T04:01:31.077Z,955.5026855
2023-01-26T04:02:31.502Z,955.4754639
2023-01-26T04:03:32.079Z,955.472168
2023-01-26T04:04:33.007Z,955.4420166
2023-01-26T04:05:33.450Z,955.4671631
2023-01-26T04:06:33.995Z,955.4673462
2023-01-26T04:08:04.841Z,955.4257813
2023-01-26T04:09:05.351Z,955.4221191
2023-01-26T04:10:05.693Z,955.4401855
2023-01-26T04:11:06.083Z,955.4196777
2023-01-26T04:12:06.608Z,955.460144
2023-01-26T04:13:07.010Z,955.4633789
2023-01-26T04:14:08.387Z,955.4569702
2023-01-26T04:15:08.737Z,955.4324951
2023-01-26T04:16:09.159Z,955.4522705
2023-01-26T04:17:09.525Z,955.3998413
2023-01-26T04:18:09.994Z,955.4123535
2023-01-26T04:19:10.573Z,955.3900146
2023-01-26T04:20:11.381Z,955.4202881
2023-01-26T04:21:11.336Z,955.3966675
2023-01-26T04:22:11.752Z,955.3864746
2023-01-26T04:23:12.211Z,955.414978
2023-01-26T04:24:16.290Z,955.3529663
2023-01-26T04:25:13.732Z,955.3953857
2023-01-26T04:26:14.194Z,955.3879395
2023-01-26T04:27:14.601Z,955.375
2023-01-26T04:28:15.492Z,955.3587646
2023-01-26T04:29:16.096Z,955.3065796
2023-01-26T04:30:16.526Z,955.2658081
2023-01-26T04:31:17.964Z,955.2736206
2023-01-26T04:32:18.346Z,955.3041992
2023-01-26T04:33:18.737Z,955.2834473
2023-01-26T04:34:19.910Z,955.293457
2023-01-26T04:35:20.389Z,955.329895
2023-01-26T04:36:20.799Z,955.2506104
2023-01-26T04:37:21.221Z,955.2263794
2023-01-26T04:38:21.606Z,955.2086182
2023-01-26T04:39:22.222Z,955.2104492
2023-01-26T04:40:23.331Z,955.2214355
2023-01-26T04:41:23.864Z,955.1835938
2023-01-26T04:42:24.289Z,955.2073364
2023-01-26T04:43:24.702Z,955.1500854
2023-01-26T04:44:25.820Z,955.1676636
2023-01-26T04:45:26.252Z,955.1574707
2023-01-26T04:46:26.800Z,955.171875
2023-01-26T04:47:29.308Z,955.1343994
2023-01-26T04:48:27.692Z,955.1705322
2023-01-26T04:49:28.253Z,955.1578369
2023-01-26T04:50:28.758Z,955.142334
2023-01-26T04:51:29.170Z,955.147644
2023-01-26T04:52:29.629Z,955.1199341
2023-01-26T04:53:30.009Z,955.1271973
2023-01-26T04:54:31.335Z,955.1175537
2023-01-26T04:55:31.729Z,955.1439209
2023-01-26T04:56:32.160Z,955.0895386
2023-01-26T04:57:32.664Z,955.0714722
2023-01-26T04:59:04.220Z,955.0565796
2023-01-26T05:00:04.871Z,955.0731201
2023-01-26T05:01:05.251Z,955.0631104
2023-01-26T05:02:06.551Z,955.0332642
2023-01-26T05:03:08.947Z,955.0293579
2023-01-26T05:04:07.482Z,955.0331421
2023-01-26T05:05:08.519Z,954.980835
2023-01-26T05:06:08.897Z,954.9564209
2023-01-26T05:07:09.413Z,955.0158081
2023-01-26T05:08:09.849Z,954.954834
2023-01-26T05:09:40.520Z,954.977356
2023-01-26T05:11:11.221Z,954.9613037
2023-01-26T05:12:11.572Z,954.949707
2023-01-26T05:13:12.127Z,954.9468994
2023-01-26T05:14:12.518Z,954.9384155
2023-01-26T05:15:13.626Z,954.9597168
2023-01-26T05:16:14.122Z,954.9969482
2023-01-26T05:17:14.505Z,954.9768677
2023-01-26T05:18:14.934Z,954.9417114
2023-01-26T05:19:15.386Z,954.968689
2023-01-26T05:20:15.903Z,954.940918
2023-01-26T05:21:16.386Z,954.9378052
2023-01-26T05:22:16.744Z,954.9454956
2023-01-26T05:23:17.246Z,954.8754883
2023-01-26T05:24:17.664Z,954.8565063
2023-01-26T05:25:19.142Z,954.8519287
2023-01-26T05:26:19.626Z,954.8432617
2023-01-26T05:27:19.962Z,954.8435059
2023-01-26T05:28:20.361Z,954.8883667
2023-01-26T05:29:20.808Z,954.8651733
2023-01-26T05:30:21.209Z,954.8449707
2023-01-26T05:31:22.430Z,954.8460693
2023-01-26T05:32:22.718Z,954.8267212
2023-01-26T05:33:23.192Z,954.8459473
2023-01-26T05:34:23.619Z,954.7879639
2023-01-26T05:35:25.036Z,954.8214722
2023-01-26T05:36:25.693Z,954.7802124
2023-01-26T05:37:25.926Z,954.7867432
2023-01-26T05:38:26.356Z,954.7451782
2023-01-26T05:39:26.781Z,954.7689209
2023-01-26T05:40:27.175Z,954.7298584
2023-01-26T05:41:27.788Z,954.7421875
2023-01-26T05:42:28.115Z,954.7542114
2023-01-26T05:43:28.621Z,954.7573242
2023-01-26T05:44:29.847Z,954.7672729
2023-01-26T05:45:30.270Z,954.7716675
2023-01-26T05:46:31.379Z,954.7935181
2023-01-26T05:47:31.741Z,954.762207
2023-01-26T05:48:32.121Z,954.725647
2023-01-26T05:49:32.550Z,954.7243652
2023-01-26T05:51:04.106Z,954.7318726
2023-01-26T05:52:04.191Z,954.7487793
2023-01-26T05:53:04.573Z,954.7860107
2023-01-26T05:54:04.968Z,954.8179932
2023-01-26T05:55:06.143Z,954.8308105
2023-01-26T05:56:06.514Z,954.8259277
2023-01-26T05:57:07.015Z,954.7839355
2023-01-26T05:58:07.434Z,954.7982788
2023-01-26T05:59:07.852Z,954.7993774
2023-01-26T06:00:08.635Z,954.8140869
2023-01-26T06:01:08.742Z,954.7913818
2023-01-26T06:02:09.300Z,954.8136597
2023-01-26T06:03:09.663Z,954.8304443
2023-01-26T06:04:10.126Z,954.8283081
2023-01-26T06:05:11.138Z,954.7937622
2023-01-26T06:06:11.544Z,954.8377075
2023-01-26T06:07:12.101Z,954.8242188
2023-01-26T06:08:12.549Z,954.8630981
2023-01-26T06:09:12.989Z,954.8093872
2023-01-26T06:10:13.867Z,954.8322754
2023-01-26T06:11:13.880Z,954.8289185
2023-01-26T06:12:14.347Z,954.8515015
2023-01-26T06:13:14.720Z,954.854248
2023-01-26T06:14:15.158Z,954.8192139
2023-01-26T06:15:16.581Z,954.8498535
2023-01-26T06:16:16.991Z,954.8449707
2023-01-26T06:17:17.508Z,954.836731
2023-01-26T06:18:17.950Z,954.8311157
2023-01-26T06:19:18.369Z,954.8476563
2023-01-26T06:20:18.908Z,954.8851318
2023-01-26T06:21:19.338Z,954.8968506
2023-01-26T06:22:20.120Z,954.9082642
2023-01-26T06:23:20.271Z,954.9037476
2023-01-26T06:24:20.786Z,954.9191895
2023-01-26T06:25:22.164Z,954.8823242
2023-01-26T06:26:22.602Z,954.8959351
2023-01-26T06:27:23.005Z,954.9115601
2023-01-26T06:28:23.457Z,954.8804932
2023-01-26T06:29:23.867Z,954.8482666
2023-01-26T06:30:24.355Z,954.8770142
2023-01-26T06:31:25.644Z,954.9152832
2023-01-26T06:32:26.044Z,954.9296875
2023-01-26T06:33:26.505Z,954.9224243
2023-01-26T06:34:26.878Z,954.8696899
2023-01-26T06:35:28.115Z,954.9157715
2023-01-26T06:36:28.540Z,954.8920898
2023-01-26T06:37:29.124Z,954.9107666
2023-01-26T06:38:29.456Z,954.8519287
2023-01-26T06:39:29.849Z,954.873291
2023-01-26T06:40:30.352Z,954.8223267
2023-01-26T06:41:30.831Z,954.8588867
2023-01-26T06:42:31.310Z,954.8456421
2023-01-26T06:43:31.743Z,954.8062744
2023-01-26T06:44:32.679Z,954.7446899
2023-01-26T06:46:04.271Z,954.8024292
2023-01-26T06:47:04.682Z,954.8226318
2023-01-26T06:48:05.267Z,954.8290405
2023-01-26T06:49:05.673Z,954.8231201
2023-01-26T06:50:06.107Z,954.8279419
2023-01-26T06:51:06.589Z,954.800293
2023-01-26T06:52:07.025Z,954.7932739
2023-01-26T06:53:07.675Z,954.8347168
2023-01-26T06:54:07.959Z,954.809082
2023-01-26T06:55:09.337Z,954.7728271
2023-01-26T06:56:09.756Z,954.7630615
2023-01-26T06:57:10.417Z,954.7756348
2023-01-26T06:58:10.934Z,954.7526855
2023-01-26T06:59:11.342Z,954.7376709
2023-01-26T07:00:12.133Z,954.7782593
2023-01-26T07:01:12.339Z,954.7550659
2023-01-26T07:02:12.769Z,954.7856445
2023-01-26T07:03:13.243Z,954.8045044
2023-01-26T07:04:13.637Z,954.7171631
2023-01-26T07:05:14.803Z,954.7386475
2023-01-26T07:06:15.195Z,954.72052
2023-01-26T07:07:15.606Z,954.7703247
2023-01-26T07:08:16.253Z,954.760376
2023-01-26T07:09:16.565Z,954.7223511
2023-01-26T07:10:17.911Z,954.7478027
2023-01-26T07:11:18.351Z,954.7355347
2023-01-26T07:12:18.755Z,954.6947632
2023-01-26T07:13:19.320Z,954.7528076
2023-01-26T07:14:19.716Z,954.744873
2023-01-26T07:15:20.167Z,954.7352905
2023-01-26T07:16:21.543Z,954.7323608
2023-01-26T07:17:21.890Z,954.727356
2023-01-26T07:18:22.394Z,954.7608032
2023-01-26T07:19:22.853Z,954.7485962
2023-01-26T07:20:23.288Z,954.7435303
2023-01-26T07:21:23.744Z,954.713623
2023-01-26T07:22:24.139Z,954.6939087
2023-01-26T07:23:24.776Z,954.6763916
2023-01-26T07:24:25.167Z,954.694397
2023-01-26T07:25:26.366Z,954.6677856
2023-01-26T07:26:26.789Z,954.6824341
2023-01-26T07:27:27.246Z,954.6727295
2023-01-26T07:28:27.739Z,954.6599731
2023-01-26T07:29:28.164Z,954.6607666
2023-01-26T07:30:28.741Z,954.6782837
2023-01-26T07:31:29.849Z,954.7164307
2023-01-26T07:32:30.223Z,954.7265015
2023-01-26T07:33:30.747Z,954.7331543
2023-01-26T07:34:31.128Z,954.7312622
2023-01-26T07:35:32.946Z,954.6925659
2023-01-26T07:37:03.600Z,954.6643677
2023-01-26T07:38:04.006Z,954.7298584
2023-01-26T07:39:06.475Z,954.6915894
2023-01-26T07:40:05.498Z,954.6759644
2023-01-26T07:41:06.088Z,954.6812744
2023-01-26T07:42:06.442Z,954.6798706
2023-01-26T07:43:06.922Z,954.6671753
2023-01-26T07:44:07.393Z,954.6712646
2023-01-26T07:45:07.742Z,954.6617432
2023-01-26T07:46:09.255Z,954.6987305
2023-01-26T07:47:09.543Z,954.6929932
2023-01-26T07:48:10.035Z,954.7036743
2023-01-26T07:49:10.738Z,954.7106323
2023-01-26T07:50:11.338Z,954.6547852
2023-01-26T07:51:11.647Z,954.6459961
2023-01-26T07:52:12.039Z,954.6348267
2023-01-26T07:53:12.539Z,954.6409302
2023-01-26T07:54:13.045Z,954.6300659
2023-01-26T07:55:13.351Z,954.6124878
2023-01-26T07:56:14.591Z,954.6035156
2023-01-26T07:57:15.021Z,954.6009521
2023-01-26T07:58:15.552Z,954.5825806
2023-01-26T07:59:15.999Z,954.552002
2023-01-26T08:00:16.370Z,954.5540771
2023-01-26T08:01:16.859Z,954.5488281
2023-01-26T08:02:18.018Z,954.5762329
2023-01-26T08:03:18.510Z,954.5234375
2023-01-26T08:04:19.071Z,954.5588989
2023-01-26T08:05:19.443Z,954.555603
2023-01-26T08:06:19.975Z,954.5535278
2023-01-26T08:07:20.365Z,954.5964355
2023-01-26T08:08:21.808Z,954.5716553
2023-01-26T08:09:22.380Z,954.5950928
2023-01-26T08:10:22.711Z,954.6081543
2023-01-26T08:11:23.125Z,954.5790405
2023-01-26T08:12:23.527Z,954.5713501
2023-01-26T08:13:34.604Z,954.5904541
2023-01-26T08:14:24.412Z,954.5614014
2023-01-26T08:15:25.505Z,954.5859375
2023-01-26T08:16:27.013Z,954.5859375
2023-01-26T08:17:27.344Z,954.5952148
2023-01-26T08:18:27.756Z,954.5584106
2023-01-26T08:19:28.360Z,954.5834961
2023-01-26T08:20:28.805Z,954.5754395
2023-01-26T08:21:29.315Z,954.5629883
2023-01-26T08:22:29.690Z,954.6034546
2023-01-26T08:23:30.054Z,954.5543823
2023-01-26T08:24:30.561Z,954.581543
2023-01-26T08:25:32.337Z,954.5915527
2023-01-26T08:27:03.026Z,954.5836182
2023-01-26T08:28:03.390Z,954.5995483
2023-01-26T08:29:03.923Z,954.5969238
2023-01-26T08:30:04.350Z,954.605957
2023-01-26T08:31:04.842Z,954.6043701
2023-01-26T08:32:06.269Z,954.6610718
2023-01-26T08:33:06.556Z,954.6027832
2023-01-26T08:34:06.917Z,954.6147461
2023-01-26T08:35:07.471Z,954.6656494
2023-01-26T08:36:08.496Z,954.7310791
2023-01-26T08:37:09.050Z,954.6995239
2023-01-26T08:38:09.437Z,954.6889038
2023-01-26T08:39:09.908Z,954.6547852
2023-01-26T08:40:10.949Z,954.6311035
2023-01-26T08:41:11.036Z,954.6400146
2023-01-26T08:42:11.472Z,954.7039185
2023-01-26T08:43:11.815Z,954.6628418
2023-01-26T08:44:12.219Z,954.6617432
2023-01-26T08:45:12.631Z,954.6867065
2023-01-26T08:46:14.073Z,954.6685791
2023-01-26T08:47:14.502Z,954.6887207
2023-01-26T08:48:14.909Z,954.6865845
2023-01-26T08:49:15.338Z,954.7271118
2023-01-26T08:50:16.797Z,954.723877
2023-01-26T08:51:17.252Z,954.7253418
2023-01-26T08:52:17.832Z,954.7277222
2023-01-26T08:53:18.210Z,954.7248535
2023-01-26T08:54:18.750Z,954.78125
2023-01-26T08:55:19.221Z,954.7603149
2023-01-26T08:56:20.561Z,954.7496948
2023-01-26T08:57:21.030Z,954.711731
2023-01-26T08:58:21.443Z,954.7407837
2023-01-26T08:59:22.028Z,954.7450562
2023-01-26T09:00:22.423Z,954.756897
2023-01-26T09:01:22.929Z,954.7446899
2023-01-26T09:02:24.123Z,954.7689819
2023-01-26T09:03:24.403Z,954.7874756
2023-01-26T09:04:25.000Z,954.7323608
2023-01-26T09:05:25.375Z,954.7885132
2023-01-26T09:06:26.571Z,954.7980957
2023-01-26T09:07:27.025Z,954.7230225
2023-01-26T09:08:27.464Z,954.746582
2023-01-26T09:09:27.994Z,954.692749
2023-01-26T09:10:28.420Z,954.7302856
2023-01-26T09:11:28.897Z,954.7663574
2023-01-26T09:12:29.362Z,954.6827393
2023-01-26T09:13:29.783Z,954.7556152
2023-01-26T09:14:30.780Z,954.7387695
2023-01-26T09:16:02.000Z,954.8109131
2023-01-26T09:17:03.134Z,954.8114014
2023-01-26T09:18:03.550Z,954.8045044
2023-01-26T09:19:04.141Z,954.7486572
2023-01-26T09:20:04.614Z,954.77771
2023-01-26T09:21:05.200Z,954.7537231
2023-01-26T09:22:05.708Z,954.7298584
2023-01-26T09:23:06.118Z,954.7494507
2023-01-26T09:24:06.666Z,954.772644
2023-01-26T09:25:07.037Z,954.7218628
2023-01-26T09:26:08.326Z,954.7335205
2023-01-26T09:27:08.737Z,954.7457886
2023-01-26T09:28:09.219Z,954.7509155
2023-01-26T09:29:09.669Z,954.7865601
2023-01-26T09:30:10.167Z,954.8483887
2023-01-26T09:31:11.054Z,954.8153076
2023-01-26T09:32:11.322Z,954.8309937
2023-01-26T09:33:11.787Z,954.8016968
2023-01-26T09:34:12.189Z,954.8439941
2023-01-26T09:35:14.682Z,954.8445435
2023-01-26T09:36:13.777Z,954.8032227
2023-01-26T09:37:14.169Z,954.8873291
2023-01-26T09:38:14.582Z,954.8409424
2023-01-26T09:39:15.050Z,954.8712769
2023-01-26T09:40:15.492Z,954.8775024
2023-01-26T09:41:15.967Z,954.8527832
2023-01-26T09:42:16.426Z,954.7683105
2023-01-26T09:43:16.879Z,954.7783813
2023-01-26T09:44:18.247Z,954.7845459
2023-01-26T09:45:18.644Z,954.8582153
2023-01-26T09:46:19.150Z,954.8184204
2023-01-26T09:47:20.485Z,954.8095093
2023-01-26T09:48:24.997Z,954.824707
2023-01-26T09:49:22.325Z,954.8157959
2023-01-26T09:50:22.707Z,954.8237305
2023-01-26T09:51:23.206Z,954.7757568
2023-01-26T09:52:23.611Z,954.7991333
2023-01-26T09:53:24.040Z,954.8121948
2023-01-26T09:54:24.484Z,954.7792358
2023-01-26T09:55:24.880Z,954.7913818
2023-01-26T09:56:25.880Z,954.8926392
2023-01-26T09:57:26.304Z,954.7860718
2023-01-26T09:58:26.691Z,954.7943115
2023-01-26T09:59:27.212Z,954.8027954
2023-01-26T10:00:27.587Z,954.800415
2023-01-26T10:01:28.144Z,954.7868042
2023-01-26T10:02:28.471Z,954.8157959
2023-01-26T10:03:28.865Z,954.8253174
2023-01-26T10:04:29.341Z,954.7792358
2023-01-26T10:05:30.152Z,954.7676392
2023-01-26T10:07:01.604Z,954.772644
2023-01-26T10:08:01.926Z,954.7449341
2023-01-26T10:09:02.355Z,954.7781372
2023-01-26T10:10:02.722Z,954.8041992
2023-01-26T10:11:03.099Z,954.7631226
2023-01-26T10:12:04.505Z,954.7893677
2023-01-26T10:13:04.902Z,954.7868042
2023-01-26T10:14:05.402Z,954.7851563
2023-01-26T10:15:05.775Z,954.7625122
2023-01-26T10:16:06.252Z,954.7512207
2023-01-26T10:17:07.487Z,954.7658081
2023-01-26T10:18:07.858Z,954.7191162
2023-01-26T10:19:08.418Z,954.7228394
2023-01-26T10:20:08.778Z,954.7160645
2023-01-26T10:21:09.240Z,954.7079468
2023-01-26T10:22:09.625Z,954.7189331
2023-01-26T10:23:10.008Z,954.6964111
2023-01-26T10:24:10.628Z,954.6998291
2023-01-26T10:25:11.187Z,954.6710815
2023-01-26T10:26:11.413Z,954.6140747
2023-01-26T10:27:12.482Z,954.6495361
2023-01-26T10:28:12.869Z,954.6387329
2023-01-26T10:29:13.414Z,954.6595459
2023-01-26T10:30:13.761Z,954.647522
2023-01-26T10:31:14.267Z,954.6574707
2023-01-26T10:32:15.542Z,954.6223145
2023-01-26T10:33:16.527Z,954.6217041
2023-01-26T10:34:16.365Z,954.6546631
2023-01-26T10:35:16.730Z,954.6546631
2023-01-26T10:36:17.110Z,954.6356812
2023-01-26T10:37:18.568Z,954.6434326
2023-01-26T10:38:18.962Z,954.6723633
2023-01-26T10:39:19.481Z,954.6670532
2023-01-26T10:40:19.880Z,954.6710205
2023-01-26T10:41:20.280Z,954.6820068
2023-01-26T10:42:20.796Z,954.6311035
2023-01-26T10:43:21.191Z,954.6612549
2023-01-26T10:44:21.660Z,954.6501465
2023-01-26T10:45:22.103Z,954.5953979
2023-01-26T10:46:22.541Z,954.5848999
2023-01-26T10:47:23.508Z,954.6091919
2023-01-26T10:48:23.913Z,954.6164551
2023-01-26T10:49:24.374Z,954.5802612
2023-01-26T10:50:24.737Z,954.5929565
2023-01-26T10:51:25.134Z,954.5831299
2023-01-26T10:52:25.647Z,954.5765381
2023-01-26T10:53:26.019Z,954.5392456
2023-01-26T10:54:26.540Z,954.5168457
2023-01-26T10:55:26.978Z,954.5261841
2023-01-26T10:56:27.389Z,954.5206299
2023-01-26T10:57:28.663Z,954.519043
2023-01-26T10:58:29.024Z,954.4678345
2023-01-26T11:00:00.604Z,954.5145874
2023-01-26T11:01:00.948Z,954.4786987
2023-01-26T11:02:01.349Z,954.5148315
2023-01-26T11:03:02.813Z,954.5509644
2023-01-26T11:04:03.197Z,954.5354614
2023-01-26T11:05:03.607Z,954.5285645